Time;durP1;ratioP1;P1;durP2;ratioP2;P2;SDS_P1;SDS_P2;PMS_P1;PMS_P2;Temp;Humidity;BMP_temperature;BMP_pressure;BME280_temperature;BME280_humidity;BME280_pressure;Samples;Min_cycle;Max_cycle;Signal;HPM_P1;HPM_P2
2023/01/31 00:00:07;;;;;;;16.00;2.60;;;;;;;2.91;89.69;99912.83;111323;1208;99043;-61
2023/01/31 00:02:32;;;;;;;28.20;3.50;;;;;;;2.91;89.50;99906.50;111252;1206;140701;-61
2023/01/31 00:04:58;;;;;;;15.20;2.90;;;;;;;2.90;89.18;99908.64;111290;1208;100611;-61
2023/01/31 00:07:24;;;;;;;14.20;2.80;;;;;;;2.89;88.86;99915.55;111222;1206;99650;-60
2023/01/31 00:09:49;;;;;;;21.80;3.10;;;;;;;2.89;88.95;99911.32;111167;1208;140039;-61
2023/01/31 00:12:15;;;;;;;26.10;3.70;;;;;;;2.88;88.75;99922.45;111137;1206;99002;-61
2023/01/31 00:14:40;;;;;;;17.00;3.80;;;;;;;2.88;88.48;99924.91;111214;1208;139249;-60
2023/01/31 00:17:05;;;;;;;21.20;5.70;;;;;;;2.87;88.24;99924.95;111146;1206;98941;-60
2023/01/31 00:19:31;;;;;;;17.30;2.90;;;;;;;2.86;87.96;99934.84;111264;1208;100028;-61
2023/01/31 00:21:56;;;;;;;18.40;3.50;;;;;;;2.84;88.08;99935.08;111170;1206;139452;-60
2023/01/31 00:24:22;;;;;;;18.20;3.20;;;;;;;2.81;88.04;99932.49;111172;1206;99062;-61
2023/01/31 00:26:49;;;;;;;21.00;3.20;;;;;;;2.80;88.01;99937.27;111206;1208;139134;-61
2023/01/31 00:29:14;;;;;;;12.40;2.60;;;;;;;2.81;87.75;99944.67;111261;1208;108225;-62
2023/01/31 00:31:40;;;;;;;24.10;2.00;;;;;;;2.82;87.57;99939.34;111256;1208;98988;-62
2023/01/31 00:34:05;;;;;;;12.70;2.60;;;;;;;2.82;87.26;99952.05;111230;1206;139645;-61
2023/01/31 00:36:33;;;;;;;18.20;2.50;;;;;;;2.80;87.43;99952.27;111302;1206;98954;-60
2023/01/31 00:39:00;;;;;;;18.40;3.40;;;;;;;2.79;87.11;99957.61;111144;1204;139954;-61
2023/01/31 00:41:27;;;;;;;17.60;2.70;;;;;;;2.79;86.63;99969.42;111286;1206;100393;-61
2023/01/31 00:43:53;;;;;;;13.40;2.20;;;;;;;2.79;86.74;99976.30;111301;1206;99126;-61
2023/01/31 00:46:22;;;;;;;26.00;4.60;;;;;;;2.78;86.71;99980.90;111142;1208;139369;-60
2023/01/31 00:48:48;;;;;;;16.90;2.60;;;;;;;2.77;86.63;99985.16;111386;1206;99034;-60
2023/01/31 00:51:15;;;;;;;12.10;2.00;;;;;;;2.77;86.69;99983.23;111139;1208;140043;-60
2023/01/31 00:53:40;;;;;;;15.40;2.80;;;;;;;2.75;86.59;99992.26;111388;1206;99050;-61
2023/01/31 00:56:09;;;;;;;23.30;2.20;;;;;;;2.74;86.44;99991.40;111293;1206;111012;-60
2023/01/31 00:58:35;;;;;;;13.70;2.40;;;;;;;2.74;86.35;100001.98;111337;1208;140625;-61
2023/01/31 01:01:09;;;;;;;18.20;2.40;;;;;;;2.73;86.42;99999.71;111271;1208;100278;-60
2023/01/31 01:03:35;;;;;;;7.40;1.40;;;;;;;2.72;86.43;100003.44;111216;1209;140488;-60
2023/01/31 01:06:01;;;;;;;16.70;2.10;;;;;;;2.72;85.48;100003.09;111323;1208;98945;-61
2023/01/31 01:08:28;;;;;;;26.70;3.40;;;;;;;2.72;85.42;100005.91;111214;1206;139335;-61
2023/01/31 01:10:53;;;;;;;11.80;2.30;;;;;;;2.73;84.87;100008.02;111298;1206;109052;-60
2023/01/31 01:13:19;;;;;;;15.20;2.30;;;;;;;2.70;84.88;100005.95;111168;1205;98913;-60
2023/01/31 01:15:44;;;;;;;14.70;2.40;;;;;;;2.70;84.70;100023.08;111237;1206;139403;-60
2023/01/31 01:18:09;;;;;;;13.30;2.80;;;;;;;2.72;84.84;100023.91;111228;1205;98920;-60
2023/01/31 01:20:35;;;;;;;16.80;2.30;;;;;;;2.71;84.50;100029.56;111152;1208;139740;-60
2023/01/31 01:23:01;;;;;;;10.50;2.60;;;;;;;2.71;84.16;100031.16;111120;1206;98912;-61
2023/01/31 01:25:27;;;;;;;11.70;2.20;;;;;;;2.70;84.30;100032.77;111236;1208;98996;-61
2023/01/31 01:27:52;;;;;;;16.70;2.20;;;;;;;2.69;83.90;100042.14;111188;1208;139699;-60
2023/01/31 01:30:17;;;;;;;19.80;3.10;;;;;;;2.67;84.03;100046.42;111206;1205;98935;-61
2023/01/31 01:32:43;;;;;;;17.10;2.50;;;;;;;2.64;84.06;100042.77;111220;1206;139022;-60
2023/01/31 01:35:09;;;;;;;10.70;2.20;;;;;;;2.61;83.99;100044.44;111321;1206;98903;-63
2023/01/31 01:37:34;;;;;;;15.20;2.70;;;;;;;2.58;84.09;100043.83;111264;1208;99008;-62
2023/01/31 01:40:00;;;;;;;10.20;2.00;;;;;;;2.55;84.21;100047.23;111180;1206;138736;-62
2023/01/31 01:42:26;;;;;;;28.80;4.90;;;;;;;2.53;84.08;100054.33;111396;1206;98938;-63
2023/01/31 01:44:58;;;;;;;11.20;2.30;;;;;;;2.51;83.73;100060.36;111272;1208;140894;-61
2023/01/31 01:47:29;;;;;;;15.40;2.00;;;;;;;2.49;83.73;100064.45;111276;1208;107020;-63
2023/01/31 01:50:02;;;;;;;16.60;2.30;;;;;;;2.47;83.81;100063.25;111241;1208;98941;-61
2023/01/31 01:52:30;;;;;;;16.60;3.30;;;;;;;2.47;83.86;100068.02;111186;1205;141159;-61
2023/01/31 01:55:06;;;;;;;25.20;2.80;;;;;;;2.46;83.82;100069.81;111251;1208;113024;-61
2023/01/31 01:57:39;;;;;;;14.20;2.20;;;;;;;2.46;83.75;100070.69;111177;1206;139317;-61
2023/01/31 02:00:12;;;;;;;20.80;3.30;;;;;;;2.45;83.80;100065.41;111311;1208;107554;-61
2023/01/31 02:02:38;;;;;;;16.90;2.00;;;;;;;2.46;83.82;100071.92;111116;1208;139059;-61
2023/01/31 02:05:05;;;;;;;11.50;2.10;;;;;;;2.46;83.57;100082.15;111286;1206;99024;-61
2023/01/31 02:07:31;;;;;;;21.20;2.10;;;;;;;2.46;83.27;100087.98;111400;1205;99024;-60
2023/01/31 02:10:02;;;;;;;19.60;2.90;;;;;;;2.46;83.04;100094.32;111168;1206;139075;-61
2023/01/31 02:12:29;;;;;;;12.60;2.20;;;;;;;2.47;83.05;100092.70;111261;1206;99027;-61
2023/01/31 02:14:54;;;;;;;21.30;2.80;;;;;;;2.46;83.01;100091.85;111158;1208;140602;-61
2023/01/31 02:17:20;;;;;;;9.60;1.90;;;;;;;2.45;82.93;100103.16;111244;1206;99019;-61
2023/01/31 02:20:06;;;;;;;13.80;2.50;;;;;;;2.49;82.94;100110.31;111304;1208;97570;-61
2023/01/31 02:23:02;;;;;;;19.40;2.10;;;;;;;2.52;82.87;100106.72;111137;1205;140069;-61
2023/01/31 02:25:52;;;;;;;12.80;2.30;;;;;;;2.52;82.31;100115.73;111252;1206;98940;-61
2023/01/31 02:28:52;;;;;;;17.00;2.60;;;;;;;2.53;82.26;100116.39;111078;1206;138974;-61
2023/01/31 02:31:59;;;;;;;16.10;2.30;;;;;;;2.51;81.97;100136.71;111209;1206;100007;-62
2023/01/31 02:34:50;;;;;;;11.90;1.80;;;;;;;2.50;82.00;100118.75;110955;1214;140347;-62
2023/01/31 02:37:27;;;;;;;9.10;1.60;;;;;;;2.50;81.67;100131.81;111212;1206;99043;-62
2023/01/31 02:40:17;;;;;;;8.10;1.80;;;;;;;2.49;81.78;100134.80;111075;1206;139178;-62
2023/01/31 02:43:04;;;;;;;13.20;2.20;;;;;;;2.47;81.87;100136.61;111259;1206;112778;-62
2023/01/31 02:45:58;;;;;;;11.30;2.40;;;;;;;2.44;81.33;100142.32;111231;1206;140414;-62
2023/01/31 02:48:42;;;;;;;7.10;1.70;;;;;;;2.43;81.42;100139.01;111182;1209;108444;-62
2023/01/31 02:51:19;;;;;;;5.40;1.70;;;;;;;2.42;81.24;100150.99;111155;1206;139837;-62
2023/01/31 02:54:10;;;;;;;11.20;1.70;;;;;;;2.41;80.92;100154.89;111279;1208;99142;-62
2023/01/31 02:56:39;;;;;;;23.60;2.40;;;;;;;2.41;81.24;100164.58;111099;1208;139615;-60
2023/01/31 02:59:24;;;;;;;11.40;2.20;;;;;;;2.40;81.25;100161.61;111305;1206;98983;-61
2023/01/31 03:01:56;;;;;;;14.00;2.60;;;;;;;2.40;81.03;100171.84;111288;1209;107863;-61
2023/01/31 03:04:22;;;;;;;14.00;2.40;;;;;;;2.41;81.52;100174.64;111195;1207;140153;-62
2023/01/31 03:07:04;;;;;;;21.20;3.10;;;;;;;2.40;81.67;100183.30;111336;1208;98993;-63
2023/01/31 03:10:00;;;;;;;13.00;3.80;;;;;;;2.39;81.66;100185.25;111153;1205;140411;-61
2023/01/31 03:12:35;;;;;;;18.20;1.90;;;;;;;2.38;81.50;100193.74;111268;1206;99496;-62
2023/01/31 03:15:22;;;;;;;14.50;2.10;;;;;;;2.37;81.41;100196.39;111116;1206;139949;-62
2023/01/31 03:18:10;;;;;;;17.00;2.60;;;;;;;2.39;81.36;100198.83;111022;1205;99004;-61
2023/01/31 03:20:48;;;;;;;25.40;3.40;;;;;;;2.39;81.30;100200.41;111202;1207;139226;-61
2023/01/31 03:23:18;;;;;;;16.50;2.00;;;;;;;2.40;81.34;100204.80;111287;1208;113079;-61
2023/01/31 03:25:46;;;;;;;15.40;2.50;;;;;;;2.41;81.32;100208.85;111364;1206;99908;-61
2023/01/31 03:28:26;;;;;;;12.00;2.70;;;;;;;2.42;81.12;100206.53;111117;1208;139325;-61
2023/01/31 03:30:59;;;;;;;18.70;2.20;;;;;;;2.42;80.60;100209.01;111295;1205;98924;-61
2023/01/31 03:33:28;;;;;;;16.00;2.60;;;;;;;2.42;80.83;100212.54;111219;1208;138557;-61
2023/01/31 03:36:11;;;;;;;12.60;2.10;;;;;;;2.44;80.77;100217.62;111247;1208;113581;-61
2023/01/31 03:38:49;;;;;;;10.90;1.90;;;;;;;2.45;80.78;100220.77;111119;1206;140672;-62
2023/01/31 03:41:31;;;;;;;13.10;1.90;;;;;;;2.45;80.56;100226.06;111244;1208;107373;-61
2023/01/31 03:44:08;;;;;;;18.00;2.80;;;;;;;2.45;80.57;100237.88;111298;1209;98935;-61
2023/01/31 03:46:42;;;;;;;24.40;2.70;;;;;;;2.46;80.38;100236.27;111105;1209;138446;-61
2023/01/31 03:49:11;;;;;;;10.70;1.60;;;;;;;2.44;80.33;100244.06;111238;1206;112347;-61
2023/01/31 03:51:44;;;;;;;12.70;1.50;;;;;;;2.44;80.42;100250.94;111226;1206;139888;-61
2023/01/31 03:54:18;;;;;;;10.00;1.50;;;;;;;2.46;80.17;100249.31;111251;1208;107475;-60
2023/01/31 03:56:51;;;;;;;19.00;2.40;;;;;;;2.46;80.13;100255.14;111114;1206;139684;-61
2023/01/31 03:59:24;;;;;;;13.10;2.00;;;;;;;2.47;79.84;100255.47;111286;1206;98929;-61
2023/01/31 04:01:53;;;;;;;9.70;1.70;;;;;;;2.47;79.85;100259.17;111295;1208;113208;-61
2023/01/31 04:04:31;;;;;;;12.90;1.70;;;;;;;2.46;79.84;100265.90;111176;1206;140477;-61
2023/01/31 04:06:59;;;;;;;9.30;1.30;;;;;;;2.45;80.02;100269.96;111270;1205;106052;-61
2023/01/31 04:09:24;;;;;;;15.20;2.10;;;;;;;2.44;79.90;100274.92;111101;1209;138870;-61
2023/01/31 04:11:50;;;;;;;19.80;2.30;;;;;;;2.43;80.19;100277.21;111303;1206;98897;-60
2023/01/31 04:14:16;;;;;;;15.60;2.10;;;;;;;2.44;80.16;100278.27;111226;1206;138768;-63
2023/01/31 04:16:42;;;;;;;17.80;3.00;;;;;;;2.42;79.69;100279.89;111280;1205;107842;-62
2023/01/31 04:19:07;;;;;;;16.90;2.50;;;;;;;2.44;79.55;100278.80;111158;1208;98944;-62
2023/01/31 04:21:32;;;;;;;14.00;2.50;;;;;;;2.43;79.58;100283.39;111257;1206;139307;-62
2023/01/31 04:23:58;;;;;;;12.30;2.30;;;;;;;2.43;79.74;100283.39;111304;1206;99615;-62
2023/01/31 04:26:23;;;;;;;17.20;2.10;;;;;;;2.43;79.75;100291.88;111096;1208;139034;-62
2023/01/31 04:28:49;;;;;;;15.70;1.90;;;;;;;2.43;79.66;100294.87;111325;1208;99511;-62
2023/01/31 04:31:14;;;;;;;23.90;3.00;;;;;;;2.43;79.41;100291.70;111254;1208;98947;-62
2023/01/31 04:33:40;;;;;;;13.00;1.70;;;;;;;2.42;79.52;100296.98;111282;1206;141200;-62
2023/01/31 04:36:07;;;;;;;14.30;1.90;;;;;;;2.42;79.66;100304.05;111190;1208;99034;-61
2023/01/31 04:38:32;;;;;;;12.40;1.70;;;;;;;2.41;79.36;100316.06;111182;1206;140971;-62
2023/01/31 04:40:59;;;;;;;16.80;1.60;;;;;;;2.41;79.05;100307.23;111410;1205;99107;-62
2023/01/31 04:43:24;;;;;;;13.60;3.10;;;;;;;2.42;78.99;100305.29;111241;1205;108000;-62
2023/01/31 04:45:50;;;;;;;11.20;1.70;;;;;;;2.42;78.75;100301.05;111151;1206;139327;-64
2023/01/31 04:48:15;;;;;;;10.20;1.80;;;;;;;2.43;78.90;100305.98;111325;1208;98912;-63
2023/01/31 04:50:41;;;;;;;13.90;3.00;;;;;;;2.41;78.91;100309.70;111212;1206;139373;-62
2023/01/31 04:53:07;;;;;;;11.20;1.80;;;;;;;2.40;78.57;100319.07;111303;1208;99030;-62
2023/01/31 04:55:34;;;;;;;15.90;2.50;;;;;;;2.39;77.98;100322.61;111283;1209;98989;-62
2023/01/31 04:57:59;;;;;;;9.40;1.70;;;;;;;2.38;77.88;100321.04;111134;1209;139443;-62
2023/01/31 05:00:25;;;;;;;12.90;1.80;;;;;;;2.36;78.04;100329.19;111334;1206;99644;-62
2023/01/31 05:02:50;;;;;;;10.40;2.10;;;;;;;2.35;77.84;100326.91;111174;1205;139688;-63
2023/01/31 05:05:16;;;;;;;17.70;1.70;;;;;;;2.34;77.87;100336.80;111257;1206;98971;-62
2023/01/31 05:07:43;;;;;;;7.80;2.00;;;;;;;2.35;77.99;100334.84;111260;1205;98925;-62
2023/01/31 05:10:09;;;;;;;19.30;2.20;;;;;;;2.35;77.75;100345.59;111254;1206;139967;-62
2023/01/31 05:12:35;;;;;;;12.00;2.20;;;;;;;2.36;77.76;100345.92;111383;1209;99047;-62
2023/01/31 05:15:00;;;;;;;17.30;2.90;;;;;;;2.36;77.50;100357.22;111297;1206;140596;-61
2023/01/31 05:17:28;;;;;;;20.70;2.20;;;;;;;2.35;77.41;100358.98;111215;1209;99905;-62
2023/01/31 05:19:55;;;;;;;11.80;2.50;;;;;;;2.34;77.27;100363.95;111200;1206;107981;-62
2023/01/31 05:22:21;;;;;;;20.20;2.60;;;;;;;2.32;77.46;100352.85;111110;1204;140407;-62
2023/01/31 05:24:48;;;;;;;14.30;1.90;;;;;;;2.31;77.54;100358.52;111286;1205;98913;-61
2023/01/31 05:27:14;;;;;;;10.30;2.40;;;;;;;2.31;77.50;100362.76;111188;1206;139050;-60
2023/01/31 05:29:39;;;;;;;11.80;2.00;;;;;;;2.29;77.42;100361.36;111339;1208;99009;-61
2023/01/31 05:32:04;;;;;;;14.00;2.10;;;;;;;2.28;77.46;100359.80;111211;1206;98942;-62
2023/01/31 05:34:32;;;;;;;15.00;2.20;;;;;;;2.27;77.45;100366.15;111263;1206;138643;-61
2023/01/31 05:36:57;;;;;;;8.40;1.70;;;;;;;2.26;77.46;100366.17;111273;1208;100277;-61
2023/01/31 05:39:23;;;;;;;14.40;2.50;;;;;;;2.24;77.05;100374.48;111125;1206;139062;-61
2023/01/31 05:41:48;;;;;;;6.70;1.90;;;;;;;2.23;77.13;100381.72;111301;1206;98941;-60
2023/01/31 05:44:15;;;;;;;14.90;2.30;;;;;;;2.24;77.34;100385.05;111221;1208;99479;-61
2023/01/31 05:46:40;;;;;;;14.80;2.60;;;;;;;2.23;77.37;100385.95;111185;1206;155283;-61
2023/01/31 05:49:06;;;;;;;17.40;2.80;;;;;;;2.22;77.30;100393.20;111261;1206;98990;-61
2023/01/31 05:51:31;;;;;;;10.60;1.60;;;;;;;2.22;77.27;100398.30;111216;1206;138833;-60
2023/01/31 05:53:57;;;;;;;10.10;2.30;;;;;;;2.22;76.71;100391.08;111232;1206;100905;-63
2023/01/31 05:56:23;;;;;;;13.20;1.50;;;;;;;2.23;76.59;100394.95;111200;1206;142038;-63
2023/01/31 05:58:49;;;;;;;7.70;1.90;;;;;;;2.23;76.34;100408.52;111265;1208;99038;-62
2023/01/31 06:01:19;;;;;;;16.20;2.80;;;;;;;2.21;76.47;100411.73;111218;1206;98924;-63
2023/01/31 06:03:45;;;;;;;18.60;2.90;;;;;;;2.20;76.49;100406.98;111116;1206;139263;-63
2023/01/31 06:06:12;;;;;;;12.10;1.80;;;;;;;2.19;76.43;100411.39;111268;1204;98959;-60
2023/01/31 06:08:37;;;;;;;11.30;1.60;;;;;;;2.18;76.54;100414.92;111191;1206;140333;-61
2023/01/31 06:11:03;;;;;;;11.50;2.10;;;;;;;2.15;76.39;100413.73;111270;1208;98902;-61
2023/01/31 06:13:30;;;;;;;8.90;1.80;;;;;;;2.15;76.61;100422.20;111422;1206;100442;-58
2023/01/31 06:15:55;;;;;;;13.40;1.90;;;;;;;2.13;76.38;100427.69;111291;1208;139329;-63
2023/01/31 06:18:20;;;;;;;11.90;1.90;;;;;;;2.13;76.56;100426.98;111274;1209;99012;-61
2023/01/31 06:20:46;;;;;;;7.90;2.30;;;;;;;2.11;76.73;100434.59;111140;1206;140573;-63
2023/01/31 06:23:11;;;;;;;17.90;3.10;;;;;;;2.08;76.66;100430.75;111249;1208;99009;-62
2023/01/31 06:25:36;;;;;;;13.10;2.30;;;;;;;2.04;76.79;100436.08;111125;1206;109348;-62
2023/01/31 06:28:02;;;;;;;18.70;2.60;;;;;;;2.02;76.88;100440.51;111134;1208;139350;-61
2023/01/31 06:30:27;;;;;;;25.90;3.90;;;;;;;2.00;76.81;100434.36;111231;1208;98936;-62
2023/01/31 06:32:52;;;;;;;18.80;3.00;;;;;;;1.99;77.10;100435.96;111108;1206;139636;-61
2023/01/31 06:35:18;;;;;;;20.00;3.90;;;;;;;1.96;76.97;100438.47;111227;1206;98989;-61
2023/01/31 06:37:43;;;;;;;15.40;3.10;;;;;;;1.94;77.08;100440.06;111103;1206;98922;-61
2023/01/31 06:40:09;;;;;;;23.60;3.30;;;;;;;1.92;77.28;100443.80;111039;1208;140417;-62
2023/01/31 06:42:34;;;;;;;18.40;3.60;;;;;;;1.90;77.39;100445.94;111365;1208;99040;-61
2023/01/31 06:45:00;;;;;;;21.40;4.20;;;;;;;1.88;77.67;100446.48;111111;1204;139556;-61
2023/01/31 06:47:25;;;;;;;15.70;2.80;;;;;;;1.89;77.52;100455.29;111221;1206;99025;-62
2023/01/31 06:49:50;;;;;;;15.90;3.60;;;;;;;1.86;77.72;100460.25;111180;1208;100336;-62
2023/01/31 06:52:16;;;;;;;30.10;3.20;;;;;;;1.86;77.90;100456.38;111009;1208;139557;-63
2023/01/31 06:54:41;;;;;;;14.40;2.90;;;;;;;1.85;77.87;100466.96;111271;1206;98918;-63
2023/01/31 06:57:06;;;;;;;14.00;2.80;;;;;;;1.86;78.08;100483.16;111042;1206;140542;-62
2023/01/31 06:59:32;;;;;;;18.90;2.60;;;;;;;1.85;78.28;100472.78;111167;1209;98942;-62
2023/01/31 07:01:57;;;;;;;12.10;2.20;;;;;;;1.85;78.38;100476.48;111068;1206;99044;-62
2023/01/31 07:04:22;;;;;;;8.50;2.30;;;;;;;1.86;78.51;100476.29;110970;1208;140234;-62
2023/01/31 07:06:48;;;;;;;15.40;3.50;;;;;;;1.86;78.44;100482.29;111221;1208;98914;-62
2023/01/31 07:09:13;;;;;;;15.50;2.50;;;;;;;1.84;78.74;100488.11;111055;1208;139823;-62
2023/01/31 07:11:38;;;;;;;8.70;1.80;;;;;;;1.85;78.76;100493.74;111226;1209;99024;-62
2023/01/31 07:14:04;;;;;;;15.00;2.80;;;;;;;1.85;78.69;100503.95;111132;1206;98913;-62
2023/01/31 07:16:30;;;;;;;20.10;2.70;;;;;;;1.86;78.88;100496.37;111034;1206;139254;-62
2023/01/31 07:18:55;;;;;;;19.00;3.90;;;;;;;1.88;78.87;100500.58;111258;1206;98940;-61
2023/01/31 07:21:22;;;;;;;18.90;3.50;;;;;;;1.89;79.05;100504.62;111127;1206;139302;-62
2023/01/31 07:23:48;;;;;;;27.30;3.90;;;;;;;1.91;79.06;100508.13;111273;1206;99030;-61
2023/01/31 07:26:14;;;;;;;22.60;3.30;;;;;;;1.92;79.08;100510.05;111257;1208;99555;-61
2023/01/31 07:28:40;;;;;;;12.80;2.90;;;;;;;1.93;79.18;100508.98;110998;1208;139114;-62
2023/01/31 07:31:09;;;;;;;22.10;4.20;;;;;;;1.94;79.44;100517.25;111278;1206;99833;-63
2023/01/31 07:33:35;;;;;;;19.90;3.60;;;;;;;1.95;79.63;100516.18;111150;1208;139977;-61
2023/01/31 07:36:03;;;;;;;27.30;3.40;;;;;;;1.95;79.42;100518.11;111113;1208;98938;-61
2023/01/31 07:38:29;;;;;;;18.80;2.70;;;;;;;1.95;79.43;100520.41;111424;1208;140443;-61
2023/01/31 07:40:58;;;;;;;11.20;2.80;;;;;;;1.94;79.57;100518.66;111366;1206;98918;-61
2023/01/31 07:43:24;;;;;;;16.00;3.10;;;;;;;1.96;79.62;100519.17;111243;1206;98929;-61
2023/01/31 07:45:49;;;;;;;21.30;3.00;;;;;;;1.97;79.74;100523.05;111223;1209;139149;-62
2023/01/31 07:48:14;;;;;;;14.50;3.20;;;;;;;1.96;79.46;100530.45;111152;1206;108167;-61
2023/01/31 07:50:39;;;;;;;13.40;3.00;;;;;;;1.96;79.66;100523.58;111149;1206;140379;-61
2023/01/31 07:53:05;;;;;;;25.40;3.20;;;;;;;1.97;79.66;100521.63;111312;1206;98966;-62
2023/01/31 07:55:30;;;;;;;19.10;2.60;;;;;;;1.99;79.78;100520.55;111129;1208;99520;-61
2023/01/31 07:57:55;;;;;;;19.50;3.30;;;;;;;1.97;79.77;100520.75;110920;1208;139719;-61
2023/01/31 08:05:48;;;;;;;16.30;2.70;;;;;;;2.03;79.92;100532.66;111062;1206;99977;-61
2023/01/31 08:08:14;;;;;;;17.30;2.60;;;;;;;2.04;79.62;100535.48;111197;1206;98931;-61
2023/01/31 08:10:39;;;;;;;27.00;3.80;;;;;;;2.04;79.66;100533.89;111251;1208;139530;-61
2023/01/31 08:13:05;;;;;;;18.90;3.20;;;;;;;2.07;79.81;100534.56;111255;1206;98938;-61
2023/01/31 08:15:31;;;;;;;17.90;3.40;;;;;;;2.10;79.92;100531.70;111304;1206;139092;-61
2023/01/31 08:17:57;;;;;;;15.50;3.70;;;;;;;2.12;79.95;100539.27;111470;1206;98915;-61
2023/01/31 08:20:22;;;;;;;13.70;2.90;;;;;;;2.14;79.67;100537.66;111102;1206;139481;-62
2023/01/31 08:22:48;;;;;;;20.00;2.50;;;;;;;2.17;79.90;100533.05;111127;1208;98915;-65
2023/01/31 08:25:13;;;;;;;22.50;3.20;;;;;;;2.20;79.73;100537.59;111319;1208;99034;-62
2023/01/31 08:27:38;;;;;;;14.00;2.90;;;;;;;2.23;79.70;100535.63;110984;1209;139404;-62
2023/01/31 08:30:05;;;;;;;25.60;3.70;;;;;;;2.26;79.64;100542.29;111105;1206;99025;-61
2023/01/31 08:32:30;;;;;;;14.70;3.30;;;;;;;2.28;79.70;100540.16;112999;1205;141382;-62
2023/01/31 08:34:55;;;;;;;17.20;3.00;;;;;;;2.31;79.48;100556.52;113137;1204;97930;-62
2023/01/31 08:37:21;;;;;;;14.00;2.70;;;;;;;2.31;79.39;100550.88;112780;1205;99487;-63
2023/01/31 08:39:47;;;;;;;17.10;3.50;;;;;;;2.30;79.44;100548.43;111002;1207;139181;-62
2023/01/31 08:42:13;;;;;;;19.40;2.60;;;;;;;2.29;79.23;100558.30;111071;1206;99027;-62
2023/01/31 08:44:38;;;;;;;15.20;2.70;;;;;;;2.27;79.27;100549.50;111125;1206;138763;-63
2023/01/31 08:47:04;;;;;;;21.50;2.80;;;;;;;2.30;79.19;100555.48;111224;1208;99018;-62
2023/01/31 08:49:30;;;;;;;14.20;2.60;;;;;;;2.32;79.13;100545.40;111126;1206;100350;-60
2023/01/31 08:51:55;;;;;;;12.80;2.40;;;;;;;2.35;79.22;100545.71;111023;1206;139257;-62
2023/01/31 08:54:21;;;;;;;13.90;3.10;;;;;;;2.38;79.13;100542.69;111137;1206;98967;-62
2023/01/31 08:56:46;;;;;;;22.60;3.00;;;;;;;2.40;79.12;100544.77;111314;1205;140972;-61
2023/01/31 08:59:12;;;;;;;14.90;2.30;;;;;;;2.44;79.32;100544.20;110959;1206;100524;-61
2023/01/31 09:01:40;;;;;;;10.60;2.40;;;;;;;2.46;79.05;100541.71;111088;1206;99007;-61
2023/01/31 09:04:05;;;;;;;15.90;2.90;;;;;;;2.49;79.23;100545.20;111020;1208;138591;-62
2023/01/31 09:06:31;;;;;;;11.50;2.40;;;;;;;2.50;79.36;100551.17;111298;1206;99026;-61
2023/01/31 09:08:57;;;;;;;16.40;2.50;;;;;;;2.53;79.19;100549.91;111025;1208;138265;-61
2023/01/31 09:11:25;;;;;;;13.10;2.50;;;;;;;2.55;78.99;100552.52;111451;1205;100409;-61
2023/01/31 09:13:51;;;;;;;20.30;3.00;;;;;;;2.55;78.90;100554.11;111266;1205;99007;-63
2023/01/31 09:16:17;;;;;;;18.10;4.80;;;;;;;2.55;78.57;100559.94;110974;1206;138584;-62
2023/01/31 09:18:42;;;;;;;16.50;3.30;;;;;;;2.54;78.56;100549.54;111222;1206;99044;-62
2023/01/31 09:21:18;;;;;;;18.50;3.00;;;;;;;2.54;78.90;100553.07;111064;1209;138763;-62
2023/01/31 09:23:45;;;;;;;19.70;2.70;;;;;;;2.56;78.68;100565.40;111272;1206;100033;-60
2023/01/31 09:26:12;;;;;;;19.80;3.40;;;;;;;2.56;78.71;100554.80;111151;1206;99031;-62
2023/01/31 09:28:37;;;;;;;25.90;4.20;;;;;;;2.56;78.60;100561.16;111148;1206;139999;-62
2023/01/31 09:31:15;;;;;;;27.10;3.00;;;;;;;2.58;78.75;100556.38;111166;1208;99673;-62
2023/01/31 09:33:41;;;;;;;12.90;2.60;;;;;;;2.66;79.12;100569.65;111177;1206;138526;-62
2023/01/31 09:36:12;;;;;;;13.50;2.80;;;;;;;2.77;79.10;100570.92;111156;1208;100413;-61
2023/01/31 09:38:37;;;;;;;;;;;;;;;2.84;78.75;100564.29;111155;1208;140206;-61
2023/01/31 09:41:16;;;;;;;13.30;2.90;;;;;;;2.87;78.94;100578.55;111222;1208;99036;-62
2023/01/31 09:43:53;;;;;;;16.90;3.40;;;;;;;2.88;78.62;100571.66;111184;1208;108288;-63
2023/01/31 09:46:24;;;;;;;14.50;2.20;;;;;;;2.86;78.69;100577.33;110831;1210;138776;-60
2023/01/31 09:48:54;;;;;;;16.50;2.60;;;;;;;2.88;78.48;100573.95;111090;1211;99529;-61
2023/01/31 09:51:20;;;;;;;29.10;3.40;;;;;;;2.92;78.44;100568.60;111074;1209;138883;-61
2023/01/31 09:53:46;;;;;;;14.50;3.60;;;;;;;2.93;78.18;100575.29;111173;1211;99516;-62
2023/01/31 09:56:39;;;;;;;25.60;3.00;;;;;;;2.95;77.86;100573.69;111257;1209;98938;-62
2023/01/31 09:59:21;;;;;;;15.50;2.30;;;;;;;2.92;77.78;100570.01;111105;1208;98995;-61
2023/01/31 10:02:05;;;;;;;28.00;4.00;;;;;;;2.90;77.66;100570.74;111199;1205;99014;-61
2023/01/31 10:05:09;;;;;;;16.00;2.40;;;;;;;2.88;77.73;100564.77;111130;1206;140169;-62
2023/01/31 10:07:45;;;;;;;18.80;3.10;;;;;;;2.91;77.82;100564.38;111168;1206;99727;-62
2023/01/31 10:10:15;;;;;;;23.10;3.30;;;;;;;2.95;78.04;100555.33;110866;1206;140333;-63
2023/01/31 10:12:50;;;;;;;22.30;2.70;;;;;;;2.92;77.82;100559.78;111183;1206;99085;-63
2023/01/31 10:15:43;;;;;;;20.30;3.00;;;;;;;2.91;77.97;100552.73;111261;1205;139968;-63
2023/01/31 10:18:15;;;;;;;12.70;2.50;;;;;;;2.92;77.85;100554.48;111254;1208;112799;-63
2023/01/31 10:20:51;;;;;;;6.30;1.90;;;;;;;2.90;77.69;100546.91;111112;1209;141546;-62
2023/01/31 10:23:19;;;;;;;9.00;1.60;;;;;;;2.90;77.21;100558.21;111220;1209;108363;-61
2023/01/31 10:26:13;;;;;;;17.50;3.60;;;;;;;2.88;77.32;100549.77;111141;1206;99024;-61
2023/01/31 10:29:08;;;;;;;15.50;2.60;;;;;;;2.91;77.09;100549.03;111119;1208;139287;-62
2023/01/31 10:31:43;;;;;;;13.10;1.90;;;;;;;2.96;77.20;100550.91;111139;1206;113486;-62
2023/01/31 10:34:12;;;;;;;16.90;2.30;;;;;;;3.05;77.11;100553.96;111102;1208;139817;-62
2023/01/31 10:36:49;;;;;;;24.70;4.80;;;;;;;3.18;77.26;100552.36;111171;1207;107955;-62
2023/01/31 10:39:30;;;;;;;17.70;2.50;;;;;;;3.34;77.19;100561.48;111054;1208;139394;-61
2023/01/31 10:42:08;;;;;;;11.00;2.40;;;;;;;3.34;76.56;100556.70;111272;1208;99353;-61
2023/01/31 10:44:39;;;;;;;10.00;2.60;;;;;;;3.34;76.62;100549.64;111100;1206;138834;-60
2023/01/31 10:47:16;;;;;;;26.20;4.50;;;;;;;3.37;76.75;100537.41;111191;1208;100006;-61
2023/01/31 10:49:45;;;;;;;17.10;3.00;;;;;;;3.46;77.34;100536.73;111184;1209;108425;-61
2023/01/31 10:52:29;;;;;;;17.10;3.30;;;;;;;3.59;77.17;100531.92;111026;1208;138851;-64
2023/01/31 10:55:20;;;;;;;19.60;3.40;;;;;;;3.58;76.66;100531.94;111180;1205;98976;-62
2023/01/31 10:57:46;;;;;;;15.60;2.80;;;;;;;3.48;76.68;100522.22;111060;1208;139200;-62
2023/01/31 11:00:19;;;;;;;18.10;2.70;;;;;;;3.45;76.64;100528.27;111136;1208;98911;-62
2023/01/31 11:02:44;;;;;;;11.40;2.50;;;;;;;3.47;76.75;100517.30;111123;1208;142494;-62
2023/01/31 11:05:17;;;;;;;19.20;2.40;;;;;;;3.48;76.69;100516.39;111156;1209;100363;-62
2023/01/31 11:07:43;;;;;;;16.90;3.00;;;;;;;3.47;76.61;100512.70;111195;1206;99347;-62
2023/01/31 11:10:26;;;;;;;18.10;2.50;;;;;;;3.47;76.59;100504.39;111130;1208;139991;-62
2023/01/31 11:12:55;;;;;;;15.40;2.50;;;;;;;3.48;76.81;100496.23;111301;1207;99389;-62
2023/01/31 11:15:25;;;;;;;12.00;2.80;;;;;;;3.52;77.11;100491.41;111094;1208;139082;-62
2023/01/31 11:17:52;;;;;;;15.20;3.90;;;;;;;3.53;76.93;100493.50;111235;1206;98922;-62
2023/01/31 11:20:23;;;;;;;16.00;3.00;;;;;;;3.54;77.13;100492.95;111042;1212;99039;-62
2023/01/31 11:22:48;;;;;;;;;;;;;;;3.54;77.00;100485.73;111312;1208;113122;-62
2023/01/31 11:25:20;;;;;;;13.20;2.50;;;;;;;3.51;77.01;100484.17;111185;1206;98990;-61
2023/01/31 11:27:47;;;;;;;15.50;3.50;;;;;;;3.51;77.00;100480.11;111148;1208;139138;-61
2023/01/31 11:30:26;;;;;;;28.50;4.20;;;;;;;3.50;76.78;100484.03;111037;1212;99110;-62